Time;durP1;ratioP1;P1;durP2;ratioP2;P2;SDS_P1;SDS_P2;PMS_P1;PMS_P2;Temp;Humidity;BMP_temperature;BMP_pressure;BME280_temperature;BME280_humidity;BME280_pressure;Samples;Min_cycle;Max_cycle;Signal;HPM_P1;HPM_P2
2021/01/15 00:01:31;;;;;;;37.97;17.43;;;-1.70;99.90;;;;;;4174488;28;20316;-39
2021/01/15 00:03:36;;;;;;;43.30;19.00;;;-1.80;99.90;;;;;;4174191;28;20270;-37
2021/01/15 00:05:40;;;;;;;45.73;21.07;;;-1.80;99.90;;;;;;4184386;28;20367;-39
2021/01/15 00:07:41;;;;;;;53.60;22.70;;;-1.80;99.90;;;;;;4190543;28;20335;-39
2021/01/15 00:09:43;;;;;;;40.57;18.70;;;-1.80;99.90;;;;;;4191394;28;20327;-40
2021/01/15 00:11:44;;;;;;;35.90;16.83;;;-1.80;99.90;;;;;;4190860;28;20338;-39
2021/01/15 00:13:45;;;;;;;39.80;18.97;;;-1.80;99.90;;;;;;4190387;28;20347;-40
2021/01/15 00:15:46;;;;;;;36.90;17.13;;;-1.80;99.90;;;;;;4190684;28;20351;-46
2021/01/15 00:17:47;;;;;;;33.17;15.87;;;-1.80;99.90;;;;;;4190862;28;20339;-39
2021/01/15 00:19:49;;;;;;;35.67;15.83;;;-1.90;99.90;;;;;;4190428;28;20311;-38
2021/01/15 00:21:50;;;;;;;35.23;16.87;;;-1.80;99.90;;;;;;4189538;28;21049;-42
2021/01/15 00:23:54;;;;;;;32.67;15.13;;;-1.80;99.90;;;;;;4190723;28;20760;-53
2021/01/15 00:25:55;;;;;;;30.23;14.03;;;-1.90;99.90;;;;;;4190175;28;20307;-38
2021/01/15 00:27:56;;;;;;;32.03;14.20;;;-1.90;99.90;;;;;;4190240;28;20322;-39
2021/01/15 00:29:57;;;;;;;34.77;14.40;;;-1.90;99.90;;;;;;4190377;28;20266;-39
2021/01/15 00:31:58;;;;;;;35.57;16.07;;;-1.90;99.90;;;;;;4190060;28;20319;-46
2021/01/15 00:34:00;;;;;;;45.70;19.70;;;-1.90;99.90;;;;;;4190091;28;20761;-43
2021/01/15 00:36:01;;;;;;;38.83;16.80;;;-1.90;99.90;;;;;;4190636;28;20273;-38
2021/01/15 00:38:03;;;;;;;38.43;17.67;;;-1.90;99.90;;;;;;4190062;28;20266;-40
2021/01/15 00:40:04;;;;;;;35.83;15.00;;;-1.80;99.90;;;;;;4190191;28;20367;-40
2021/01/15 00:42:10;;;;;;;32.67;15.37;;;-1.90;99.90;;;;;;4189612;28;20704;-40
2021/01/15 00:44:12;;;;;;;27.57;13.93;;;-1.90;99.90;;;;;;4174374;28;20282;-38
2021/01/15 00:46:27;;;;;;;37.63;15.77;;;-1.90;99.90;;;;;;4173069;28;20294;-37
2021/01/15 00:48:28;;;;;;;35.80;17.70;;;-1.90;99.90;;;;;;4173387;28;20294;-39
2021/01/15 00:50:29;;;;;;;39.80;18.53;;;-1.90;99.90;;;;;;4173706;28;20262;-42
2021/01/15 00:52:30;;;;;;;35.30;16.70;;;-1.90;99.90;;;;;;4183883;28;20285;-42
2021/01/15 00:54:31;;;;;;;34.90;16.40;;;-1.90;99.90;;;;;;4189793;28;20273;-39
2021/01/15 00:56:33;;;;;;;33.27;15.23;;;-1.90;99.90;;;;;;4189839;28;20281;-37
2021/01/15 00:58:34;;;;;;;32.50;15.20;;;-1.90;99.90;;;;;;4189457;28;20270;-43
2021/01/15 01:00:35;;;;;;;31.03;14.33;;;-1.90;99.90;;;;;;4189680;28;20285;-41
2021/01/15 01:02:36;;;;;;;30.60;13.60;;;-1.90;99.90;;;;;;4189734;28;20339;-38
2021/01/15 01:04:37;;;;;;;29.80;14.77;;;-1.90;99.90;;;;;;4190095;28;20319;-40
2021/01/15 01:06:39;;;;;;;26.80;12.90;;;-2.00;99.90;;;;;;4176560;28;20320;-39
2021/01/15 01:08:40;;;;;;;28.00;12.63;;;-1.90;99.90;;;;;;4173232;28;20266;-48
2021/01/15 01:10:42;;;;;;;31.27;13.67;;;-2.00;99.90;;;;;;4173304;28;20668;-38
2021/01/15 01:12:44;;;;;;;30.60;14.60;;;-2.00;99.90;;;;;;4172536;28;20685;-39
2021/01/15 01:14:45;;;;;;;26.27;12.67;;;-2.10;99.90;;;;;;4173319;28;20687;-38
2021/01/15 01:16:46;;;;;;;28.47;12.03;;;-2.10;99.90;;;;;;4173079;28;20270;-39
2021/01/15 01:18:49;;;;;;;31.93;15.93;;;-2.10;99.90;;;;;;4173611;28;20262;-39
2021/01/15 01:20:50;;;;;;;27.40;13.77;;;-2.10;99.90;;;;;;4172829;28;20258;-37
2021/01/15 01:22:51;;;;;;;24.70;11.73;;;-2.10;99.90;;;;;;4173306;28;20274;-37
2021/01/15 01:24:53;;;;;;;26.03;12.43;;;-2.10;99.90;;;;;;4172312;28;20415;-38
2021/01/15 01:26:54;;;;;;;27.87;13.70;;;-2.10;99.90;;;;;;4173348;28;20739;-38
2021/01/15 01:28:55;;;;;;;24.30;12.33;;;-2.10;99.90;;;;;;4173096;28;20335;-38
2021/01/15 01:30:56;;;;;;;27.90;13.20;;;-2.10;99.90;;;;;;4173584;28;20286;-38
2021/01/15 01:32:57;;;;;;;25.77;12.47;;;-2.20;99.90;;;;;;4172486;28;20266;-37
2021/01/15 01:34:59;;;;;;;28.20;11.87;;;-2.10;99.90;;;;;;4172338;28;20262;-39
2021/01/15 01:37:00;;;;;;;24.37;11.87;;;-2.20;99.90;;;;;;4177938;28;20671;-39
2021/01/15 01:39:01;;;;;;;24.93;12.40;;;-2.20;99.90;;;;;;4188707;28;20330;-39
2021/01/15 01:41:02;;;;;;;25.97;13.20;;;-2.20;99.90;;;;;;4179087;28;20277;-49
2021/01/15 01:43:04;;;;;;;24.03;11.33;;;-2.20;99.90;;;;;;4172709;28;20792;-40
2021/01/15 01:45:07;;;;;;;29.67;13.80;;;-2.20;99.90;;;;;;4172651;28;21134;-38
2021/01/15 01:47:09;;;;;;;26.23;11.83;;;-2.20;99.90;;;;;;4172099;28;20849;-37
2021/01/15 01:49:12;;;;;;;29.23;12.83;;;-2.20;99.90;;;;;;4172800;28;20801;-38
2021/01/15 01:51:16;;;;;;;26.90;12.03;;;-2.20;99.90;;;;;;4171921;28;21136;-37
2021/01/15 01:53:20;;;;;;;27.97;12.13;;;-2.20;99.90;;;;;;4173035;28;20324;-40
2021/01/15 01:55:22;;;;;;;25.60;12.73;;;-2.20;99.90;;;;;;4171962;28;20339;-37
2021/01/15 01:57:23;;;;;;;21.57;11.27;;;-2.20;99.90;;;;;;4172884;28;20269;-37
2021/01/15 01:59:24;;;;;;;25.57;11.60;;;-2.20;99.90;;;;;;4172201;28;20325;-40
2021/01/15 02:01:26;;;;;;;26.80;12.33;;;-2.20;99.90;;;;;;4172372;28;20829;-42
2021/01/15 02:03:27;;;;;;;24.70;11.03;;;-2.20;99.90;;;;;;4172060;28;20681;-38
2021/01/15 02:05:28;;;;;;;23.13;11.13;;;-2.20;99.90;;;;;;4172635;28;20359;-40
2021/01/15 02:07:29;;;;;;;22.60;11.67;;;-2.10;99.90;;;;;;4172422;28;20262;-38
2021/01/15 02:10:00;;;;;;;24.63;10.80;;;-2.10;99.90;;;;;;4172830;28;20308;-36
2021/01/15 02:12:15;;;;;;;24.27;10.50;;;-2.10;99.90;;;;;;4182026;28;20335;-37
2021/01/15 02:14:35;;;;;;;22.60;10.40;;;-2.10;99.90;;;;;;4188996;28;20081;-37
2021/01/15 02:16:37;;;;;;;24.40;9.80;;;-2.00;99.90;;;;;;4188908;28;20330;-36
2021/01/15 02:19:08;;;;;;;21.30;9.90;;;-2.00;99.90;;;;;;4188050;28;20311;-37
2021/01/15 02:21:32;;;;;;;20.70;10.63;;;-2.10;99.90;;;;;;4181684;28;20311;-37
2021/01/15 02:23:41;;;;;;;22.70;10.23;;;-2.00;99.90;;;;;;4188699;28;20273;-38
2021/01/15 02:26:04;;;;;;;21.70;10.90;;;-2.00;99.90;;;;;;4188413;28;20339;-37
2021/01/15 02:28:17;;;;;;;20.27;9.03;;;-2.00;99.90;;;;;;4172703;28;20282;-41
2021/01/15 02:30:40;;;;;;;22.63;9.90;;;-2.00;99.90;;;;;;4170668;28;20274;-37
2021/01/15 02:33:06;;;;;;;21.53;9.77;;;-2.00;99.90;;;;;;4172333;28;20319;-37
2021/01/15 02:35:23;;;;;;;20.37;8.70;;;-2.00;99.90;;;;;;4172251;28;20955;-37
2021/01/15 02:37:49;;;;;;;19.70;9.03;;;-2.00;99.90;;;;;;4172534;28;20673;-40
2021/01/15 02:40:02;;;;;;;18.77;8.47;;;-1.90;99.90;;;;;;4171904;28;20270;-39
2021/01/15 02:42:07;;;;;;;16.57;8.43;;;-2.00;99.90;;;;;;4172162;28;20355;-37
2021/01/15 02:44:11;;;;;;;17.10;8.10;;;-2.00;99.90;;;;;;4173164;28;20289;-37
2021/01/15 02:46:16;;;;;;;16.10;7.90;;;-1.90;99.90;;;;;;4175616;28;20290;-37
2021/01/15 02:48:22;;;;;;;18.63;9.00;;;-1.90;99.90;;;;;;4175878;28;20273;-36
2021/01/15 02:50:25;;;;;;;18.13;8.00;;;-2.00;99.90;;;;;;4175237;28;20343;-38
2021/01/15 02:52:27;;;;;;;18.47;8.53;;;-2.00;99.90;;;;;;4175274;28;20278;-37
2021/01/15 02:54:29;;;;;;;15.70;7.50;;;-2.00;99.90;;;;;;4174989;28;20736;-37
2021/01/15 02:56:30;;;;;;;19.17;8.93;;;-2.00;99.90;;;;;;4175216;28;20733;-39
2021/01/15 02:58:31;;;;;;;20.23;8.50;;;-2.00;99.90;;;;;;4182243;28;21191;-38
2021/01/15 03:00:32;;;;;;;18.20;8.20;;;-2.10;99.90;;;;;;4190683;28;20285;-36
2021/01/15 03:02:47;;;;;;;17.13;8.57;;;-2.10;99.90;;;;;;4190679;28;20265;-38
2021/01/15 03:04:57;;;;;;;16.90;9.33;;;-2.10;99.90;;;;;;4190282;28;20338;-40
2021/01/15 03:07:03;;;;;;;14.52;7.68;;;-2.10;99.90;;;;;;4174931;28;20329;-49
2021/01/15 03:09:05;;;;;;;20.10;9.60;;;-2.20;99.90;;;;;;4173949;28;20033;-37
2021/01/15 03:11:07;;;;;;;19.20;8.93;;;-2.20;99.90;;;;;;4174679;28;20278;-38
2021/01/15 03:13:10;;;;;;;17.73;9.30;;;-2.20;99.90;;;;;;4175048;28;20250;-37
2021/01/15 03:15:14;;;;;;;16.83;7.97;;;-2.30;99.90;;;;;;4174921;28;20272;-43
2021/01/15 03:17:22;;;;;;;17.83;8.43;;;-2.20;99.90;;;;;;4174729;28;20266;-40
2021/01/15 03:19:23;;;;;;;18.07;8.73;;;-2.30;99.90;;;;;;4173856;28;20359;-38
2021/01/15 03:21:28;;;;;;;16.57;8.70;;;-2.30;99.90;;;;;;4174830;28;20278;-40
2021/01/15 03:23:38;;;;;;;16.33;8.37;;;-2.30;99.90;;;;;;4174359;28;20298;-38
2021/01/15 03:25:39;;;;;;;22.45;9.18;;;-2.30;99.90;;;;;;4175170;28;20298;-41
2021/01/15 03:27:54;;;;;;;19.63;9.07;;;-2.30;99.90;;;;;;4187903;28;20032;-42
2021/01/15 03:29:55;;;;;;;16.13;8.60;;;-2.30;99.90;;;;;;4191408;28;20946;-41
2021/01/15 03:31:59;;;;;;;17.25;8.60;;;-2.30;99.90;;;;;;4191382;28;20288;-38
2021/01/15 03:34:00;;;;;;;16.33;8.33;;;-2.30;99.90;;;;;;4191014;28;20048;-39
2021/01/15 03:36:01;;;;;;;16.30;8.13;;;-2.40;99.90;;;;;;4190939;28;20281;-43
2021/01/15 03:38:08;;;;;;;15.00;7.50;;;-2.40;99.90;;;;;;4191090;28;20253;-39
2021/01/15 03:40:11;;;;;;;17.20;7.67;;;-2.40;99.90;;;;;;4176225;28;20443;-38
2021/01/15 03:42:12;;;;;;;18.93;8.30;;;-2.50;99.90;;;;;;4174099;28;20296;-37
2021/01/15 03:44:13;;;;;;;17.80;8.17;;;-2.50;99.90;;;;;;4172317;28;20304;-38
2021/01/15 03:46:18;;;;;;;18.75;9.32;;;-2.50;99.90;;;;;;4175119;28;20298;-39
2021/01/15 03:48:21;;;;;;;18.27;8.43;;;-2.40;99.90;;;;;;4173690;28;20095;-44
2021/01/15 03:50:22;;;;;;;18.13;9.80;;;-2.50;99.90;;;;;;4174285;28;20332;-39
2021/01/15 03:52:23;;;;;;;17.37;8.43;;;-2.40;99.90;;;;;;4173735;28;20328;-38
2021/01/15 03:54:24;;;;;;;17.13;8.47;;;-2.40;99.90;;;;;;4174343;28;20266;-44
2021/01/15 03:56:26;;;;;;;19.93;8.90;;;-2.50;99.90;;;;;;4173550;28;20332;-44
2021/01/15 03:58:27;;;;;;;16.77;7.50;;;-2.40;99.90;;;;;;4173710;28;20313;-38
2021/01/15 04:00:28;;;;;;;17.37;8.53;;;-2.50;99.90;;;;;;4173859;28;20324;-37
2021/01/15 04:02:30;;;;;;;15.10;7.87;;;-2.50;99.90;;;;;;4174627;28;20297;-38
2021/01/15 04:04:32;;;;;;;17.57;7.67;;;-2.50;99.90;;;;;;4174523;28;20293;-39
2021/01/15 04:06:33;;;;;;;15.13;7.77;;;-2.50;99.90;;;;;;4177461;28;20351;-46
2021/01/15 04:08:36;;;;;;;16.90;8.33;;;-2.60;99.90;;;;;;4191025;28;20741;-37
2021/01/15 04:10:37;;;;;;;17.47;8.13;;;-2.60;99.90;;;;;;4190155;28;20813;-44
2021/01/15 04:12:40;;;;;;;18.27;8.30;;;-2.50;99.90;;;;;;4190305;28;20339;-41
2021/01/15 04:14:43;;;;;;;19.27;8.90;;;-2.50;99.90;;;;;;4189789;28;20687;-38
2021/01/15 04:16:50;;;;;;;16.75;8.52;;;-2.50;99.90;;;;;;4191102;28;20273;-37
2021/01/15 04:18:51;;;;;;;18.27;8.50;;;-2.40;99.90;;;;;;4190392;28;21053;-38
2021/01/15 04:20:52;;;;;;;18.53;8.67;;;-2.40;99.90;;;;;;4189962;28;20848;-41
2021/01/15 04:22:53;;;;;;;16.67;8.13;;;-2.40;99.90;;;;;;4189965;28;20299;-40
2021/01/15 04:24:54;;;;;;;18.23;8.13;;;-2.40;99.90;;;;;;4189225;28;20664;-41
2021/01/15 04:26:58;;;;;;;15.43;7.70;;;-2.40;99.90;;;;;;4172896;28;21099;-42
2021/01/15 04:28:59;;;;;;;18.80;8.70;;;-2.50;99.90;;;;;;4173977;28;20274;-40
2021/01/15 04:31:00;;;;;;;16.97;8.23;;;-2.50;99.90;;;;;;4173437;28;20752;-37
2021/01/15 04:33:01;;;;;;;15.13;8.10;;;-2.60;99.90;;;;;;4171478;28;20277;-38
2021/01/15 04:35:03;;;;;;;17.90;8.80;;;-2.60;99.90;;;;;;4174272;28;20845;-37
2021/01/15 04:37:05;;;;;;;17.43;8.13;;;-2.60;99.90;;;;;;4172787;28;20266;-46
2021/01/15 04:39:06;;;;;;;16.87;8.37;;;-2.60;99.90;;;;;;4171535;28;20333;-41
2021/01/15 04:41:08;;;;;;;21.13;8.30;;;-2.60;99.90;;;;;;4173050;28;20274;-37
2021/01/15 04:43:15;;;;;;;19.23;9.17;;;-2.70;99.90;;;;;;4172950;28;20278;-40
2021/01/15 04:45:17;;;;;;;14.23;8.32;;;-2.60;99.90;;;;;;4172712;28;20383;-38
2021/01/15 04:47:20;;;;;;;18.73;8.53;;;-2.70;99.90;;;;;;4173637;28;20040;-38
2021/01/15 04:49:27;;;;;;;18.20;8.73;;;-2.70;99.90;;;;;;4172643;28;20289;-40
2021/01/15 04:51:28;;;;;;;17.13;8.60;;;-2.60;99.90;;;;;;4172865;28;20709;-37
2021/01/15 04:53:33;;;;;;;17.87;8.43;;;-2.60;99.90;;;;;;4172527;28;20392;-40
2021/01/15 04:55:37;;;;;;;15.80;7.97;;;-2.60;99.90;;;;;;4173842;28;20266;-38
2021/01/15 04:57:39;;;;;;;17.83;8.77;;;-2.60;99.90;;;;;;4172536;28;20274;-39
2021/01/15 04:59:46;;;;;;;19.43;8.97;;;-2.60;99.90;;;;;;4173299;28;20273;-37
2021/01/15 05:01:49;;;;;;;18.97;9.30;;;-2.60;99.90;;;;;;4176494;28;20773;-41
2021/01/15 05:03:51;;;;;;;18.33;8.27;;;-2.60;99.90;;;;;;4173696;28;20677;-40
2021/01/15 05:06:00;;;;;;;21.60;9.03;;;-2.60;99.90;;;;;;4173059;28;20289;-39
2021/01/15 05:08:16;;;;;;;18.17;8.73;;;-2.60;99.90;;;;;;4172579;28;20328;-39
2021/01/15 05:10:24;;;;;;;20.97;9.77;;;-2.50;99.90;;;;;;4173172;28;20327;-40
2021/01/15 05:12:30;;;;;;;18.23;8.77;;;-2.50;99.90;;;;;;4173688;28;20408;-39
2021/01/15 05:14:33;;;;;;;17.23;8.40;;;-2.50;99.90;;;;;;4172733;28;20033;-37
2021/01/15 05:16:36;;;;;;;20.47;8.97;;;-2.50;99.90;;;;;;4188055;28;20269;-41
2021/01/15 05:18:40;;;;;;;17.00;9.00;;;-2.40;99.90;;;;;;4178527;28;20282;-39
2021/01/15 05:20:41;;;;;;;15.13;7.80;;;-2.40;99.90;;;;;;4172205;28;20335;-38
2021/01/15 05:22:43;;;;;;;19.07;8.87;;;-2.40;99.90;;;;;;4172261;28;20258;-39
2021/01/15 05:24:44;;;;;;;18.57;8.43;;;-2.40;99.90;;;;;;4183538;28;20830;-39
2021/01/15 05:26:46;;;;;;;19.73;9.33;;;-2.40;99.90;;;;;;4188969;28;20699;-40
2021/01/15 05:28:49;;;;;;;19.10;8.40;;;-2.40;99.90;;;;;;4187732;28;20335;-42
2021/01/15 05:30:57;;;;;;;17.53;8.63;;;-2.40;99.90;;;;;;4186430;28;20350;-38
2021/01/15 05:33:00;;;;;;;21.97;10.20;;;-2.40;99.90;;;;;;4189287;28;20274;-40
2021/01/15 05:35:01;;;;;;;31.83;15.77;;;-2.40;99.90;;;;;;4185011;28;20285;-37
2021/01/15 05:37:02;;;;;;;27.00;13.67;;;-2.40;99.90;;;;;;4189047;28;20277;-35
2021/01/15 05:39:07;;;;;;;31.07;13.57;;;-2.50;99.90;;;;;;4188997;28;20803;-35
2021/01/15 05:41:21;;;;;;;39.87;17.57;;;-2.50;99.90;;;;;;4188173;28;20281;-38
2021/01/15 05:43:33;;;;;;;25.00;12.27;;;-2.50;99.90;;;;;;4188984;28;20269;-37
2021/01/15 05:45:34;;;;;;;35.17;14.63;;;-2.40;99.90;;;;;;4189136;28;20266;-36
2021/01/15 05:47:45;;;;;;;32.83;15.47;;;-2.50;99.90;;;;;;4188809;28;20293;-35
2021/01/15 05:49:56;;;;;;;44.77;18.70;;;-2.40;99.90;;;;;;4188352;28;21103;-37
2021/01/15 05:52:15;;;;;;;;;;;-2.40;99.90;;;;;;4188623;28;20269;-35
2021/01/15 05:54:32;;;;;;;37.17;17.00;;;-2.30;99.90;;;;;;4188768;28;19908;-39
2021/01/15 05:56:42;;;;;;;32.17;15.63;;;-2.30;99.90;;;;;;4188628;28;20078;-37
2021/01/15 05:59:28;;;;;;;37.30;18.13;;;-2.30;99.90;;;;;;4188738;28;20303;-35
2021/01/15 06:02:04;;;;;;;24.57;12.77;;;-2.20;99.90;;;;;;4184676;28;20281;-37
2021/01/15 06:04:06;;;;;;;40.30;18.37;;;-2.20;99.90;;;;;;4183170;28;20273;-37
2021/01/15 06:06:08;;;;;;;30.57;13.60;;;-2.30;99.90;;;;;;4188541;28;20285;-42
2021/01/15 06:08:09;;;;;;;33.93;14.27;;;-2.40;99.90;;;;;;4187103;28;20277;-39
2021/01/15 06:10:11;;;;;;;33.50;13.97;;;-2.40;99.90;;;;;;4187976;28;20320;-37
2021/01/15 06:12:14;;;;;;;34.60;15.03;;;-2.40;99.90;;;;;;4187913;28;20285;-35
2021/01/15 06:14:29;;;;;;;33.50;14.50;;;-2.40;99.90;;;;;;4188543;28;20266;-37
2021/01/15 06:16:30;;;;;;;36.30;17.77;;;-2.40;99.90;;;;;;4188019;28;20391;-38
2021/01/15 06:18:32;;;;;;;41.50;18.10;;;-2.40;99.90;;;;;;4188383;28;20323;-35
2021/01/15 06:20:34;;;;;;;43.73;18.67;;;-2.40;99.90;;;;;;4188062;28;20350;-37
2021/01/15 06:22:37;;;;;;;33.03;15.20;;;-2.40;99.90;;;;;;4188185;28;20273;-36
2021/01/15 06:24:40;;;;;;;26.30;13.70;;;-2.40;99.90;;;;;;4188203;28;20261;-37
2021/01/15 06:26:43;;;;;;;27.87;13.53;;;-2.40;99.90;;;;;;4187923;28;20781;-33
2021/01/15 06:29:00;;;;;;;32.13;14.30;;;-2.30;99.90;;;;;;4187935;28;20327;-36
2021/01/15 06:31:04;;;;;;;33.67;15.60;;;-2.30;99.90;;;;;;4188232;28;20297;-36
2021/01/15 06:33:15;;;;;;;48.17;21.60;;;-2.30;99.90;;;;;;4187731;28;20277;-40
2021/01/15 06:35:43;;;;;;;37.00;17.50;;;-2.30;99.90;;;;;;4188663;28;20315;-39
2021/01/15 06:37:46;;;;;;;39.50;18.80;;;-2.20;99.90;;;;;;4184857;28;20037;-40
2021/01/15 06:40:07;;;;;;;40.70;18.83;;;-2.20;99.90;;;;;;4188437;28;20326;-40
2021/01/15 06:42:09;;;;;;;36.93;18.10;;;-2.20;99.90;;;;;;4188425;28;20371;-40
2021/01/15 06:44:13;;;;;;;31.43;15.20;;;-2.20;99.90;;;;;;4188331;28;20669;-48
2021/01/15 06:46:25;;;;;;;37.63;17.43;;;-2.20;99.90;;;;;;4187858;28;20269;-43
2021/01/15 06:48:32;;;;;;;36.70;16.43;;;-2.20;99.90;;;;;;4189013;28;20269;-40
2021/01/15 06:50:36;;;;;;;38.50;18.00;;;-2.20;99.90;;;;;;4188578;28;20266;-39
2021/01/15 06:52:41;;;;;;;36.87;15.67;;;-2.10;99.90;;;;;;4188015;28;20327;-40
2021/01/15 06:54:45;;;;;;;31.23;14.90;;;-2.10;99.90;;;;;;4187029;28;20265;-38
2021/01/15 06:56:52;;;;;;;47.10;20.57;;;-2.10;99.90;;;;;;4187413;28;20327;-40
2021/01/15 06:59:05;;;;;;;30.67;14.10;;;-2.10;99.90;;;;;;4187765;28;20679;-44
2021/01/15 07:01:26;;;;;;;34.00;15.63;;;-2.10;99.90;;;;;;4188378;28;20853;-38
2021/01/15 07:03:27;;;;;;;;;;;-2.00;99.90;;;;;;4188869;28;20265;-38
2021/01/15 07:05:30;;;;;;;;;;;-2.00;99.90;;;;;;4189058;28;19931;-38
2021/01/15 07:07:31;;;;;;;33.37;12.60;;;-2.00;99.90;;;;;;4186930;28;19966;-37
2021/01/15 07:09:34;;;;;;;27.40;13.50;;;-1.90;99.90;;;;;;4188052;28;20346;-38
2021/01/15 07:11:42;;;;;;;28.17;13.37;;;-1.90;99.90;;;;;;4188024;28;20318;-37
2021/01/15 07:13:46;;;;;;;30.67;14.17;;;-1.90;99.90;;;;;;4187478;28;20289;-38
2021/01/15 07:15:54;;;;;;;27.47;13.23;;;-1.80;99.90;;;;;;4187583;28;20366;-37
2021/01/15 07:17:59;;;;;;;27.00;12.80;;;-1.80;99.90;;;;;;4188635;28;20327;-39
2021/01/15 07:20:07;;;;;;;27.73;13.50;;;-1.80;99.90;;;;;;4187474;28;20277;-38
2021/01/15 07:22:10;;;;;;;28.37;13.60;;;-1.70;99.90;;;;;;4188302;28;20311;-41
2021/01/15 07:24:23;;;;;;;22.70;10.93;;;-1.60;99.90;;;;;;4187494;28;20873;-43
2021/01/15 07:26:24;;;;;;;22.70;10.63;;;-1.50;99.90;;;;;;4185712;28;20339;-40
2021/01/15 07:28:25;;;;;;;25.10;10.47;;;-1.50;99.90;;;;;;4187047;28;20399;-37
2021/01/15 07:30:28;;;;;;;17.00;8.83;;;-1.50;99.90;;;;;;4189197;28;20331;-42
2021/01/15 07:32:31;;;;;;;23.83;11.47;;;-1.50;99.90;;;;;;4190687;28;20319;-47
2021/01/15 07:34:43;;;;;;;24.10;11.53;;;-1.50;99.90;;;;;;4191241;28;20811;-41
2021/01/15 07:36:44;;;;;;;24.57;11.77;;;-1.50;99.90;;;;;;4191010;28;20653;-36
2021/01/15 07:39:11;;;;;;;28.47;13.33;;;-1.50;99.90;;;;;;4190971;28;20350;-46
2021/01/15 07:41:39;;;;;;;25.50;12.00;;;-1.50;99.90;;;;;;4190710;28;20269;-38
2021/01/15 07:43:40;;;;;;;30.60;11.93;;;-1.50;99.90;;;;;;4189951;28;20327;-39
2021/01/15 07:45:42;;;;;;;28.10;13.50;;;-1.50;99.90;;;;;;4190188;28;20262;-40
2021/01/15 07:47:46;;;;;;;28.93;13.73;;;-1.50;99.90;;;;;;4190001;28;20874;-39
2021/01/15 07:49:49;;;;;;;28.40;13.70;;;-1.40;99.90;;;;;;4190286;28;20616;-37
2021/01/15 07:52:08;;;;;;;28.00;14.37;;;-1.40;99.90;;;;;;4190475;28;20304;-37
2021/01/15 07:54:10;;;;;;;30.33;12.73;;;-1.30;99.90;;;;;;4188655;28;20351;-36
2021/01/15 07:56:12;;;;;;;31.90;14.93;;;-1.40;99.90;;;;;;4190273;28;20366;-38
2021/01/15 07:58:15;;;;;;;31.20;14.90;;;-1.40;99.90;;;;;;4189606;28;20352;-36
2021/01/15 08:00:24;;;;;;;26.10;13.17;;;-1.40;99.90;;;;;;4190523;28;20327;-38
2021/01/15 08:02:25;;;;;;;39.77;16.03;;;-1.40;99.90;;;;;;4189517;28;20274;-37
2021/01/15 08:04:26;;;;;;;31.00;15.60;;;-1.40;99.90;;;;;;4190755;28;20339;-39
2021/01/15 08:06:28;;;;;;;36.33;15.07;;;-1.30;99.90;;;;;;4190381;28;20354;-38
2021/01/15 08:08:29;;;;;;;27.17;13.73;;;-1.40;99.90;;;;;;4190531;28;21079;-39
2021/01/15 08:10:30;;;;;;;29.50;13.40;;;-1.30;99.90;;;;;;4190294;28;20797;-37
2021/01/15 08:12:40;;;;;;;35.27;16.40;;;-1.30;99.90;;;;;;4189699;28;20291;-38
2021/01/15 08:14:42;;;;;;;38.40;17.45;;;-1.30;99.90;;;;;;4189667;28;20277;-39
2021/01/15 08:16:44;;;;;;;30.73;13.60;;;-1.30;99.90;;;;;;4190073;28;20445;-41
2021/01/15 08:18:46;;;;;;;31.73;15.20;;;-1.30;99.90;;;;;;4190286;28;20257;-37
2021/01/15 08:20:52;;;;;;;28.50;14.03;;;-1.30;99.90;;;;;;4189979;28;20311;-41
2021/01/15 08:22:54;;;;;;;28.60;13.93;;;-1.30;99.90;;;;;;4189446;28;20347;-44
2021/01/15 08:24:55;;;;;;;27.17;13.77;;;-1.20;99.90;;;;;;4189540;28;20340;-37
2021/01/15 08:26:57;;;;;;;28.43;14.70;;;-1.20;99.90;;;;;;4190111;28;20327;-37
2021/01/15 08:28:58;;;;;;;35.03;17.50;;;-1.20;99.90;;;;;;4189444;28;20270;-46
2021/01/15 08:31:06;;;;;;;34.77;19.03;;;-1.10;99.90;;;;;;4188643;28;20281;-40
2021/01/15 08:33:07;;;;;;;31.03;15.90;;;-1.10;99.90;;;;;;4189429;28;20337;-36
2021/01/15 08:35:26;;;;;;;30.53;16.63;;;-1.00;99.90;;;;;;4190368;28;20265;-38
2021/01/15 08:37:27;;;;;;;31.17;16.83;;;-1.00;99.90;;;;;;4188970;28;20261;-37
2021/01/15 08:39:41;;;;;;;31.70;16.20;;;-0.90;99.90;;;;;;4189579;28;20323;-38
2021/01/15 08:41:43;;;;;;;34.57;17.97;;;-0.90;99.90;;;;;;4188307;28;20319;-39
2021/01/15 08:43:44;;;;;;;29.67;16.20;;;-0.80;99.90;;;;;;4190448;28;20265;-39
2021/01/15 08:45:47;;;;;;;32.20;15.43;;;-0.70;99.90;;;;;;4190014;28;20733;-40
2021/01/15 08:47:48;;;;;;;27.60;14.40;;;-0.70;99.90;;;;;;4189263;28;21072;-38
2021/01/15 08:49:59;;;;;;;31.27;15.17;;;-0.60;99.90;;;;;;4189650;28;20323;-39
2021/01/15 08:52:02;;;;;;;28.67;14.40;;;-0.60;99.90;;;;;;4189817;28;20338;-39
2021/01/15 08:54:10;;;;;;;27.20;12.83;;;-0.60;99.90;;;;;;4189391;28;20661;-40
2021/01/15 08:56:13;;;;;;;28.97;12.80;;;-0.60;99.90;;;;;;4189769;28;20269;-43
2021/01/15 08:58:17;;;;;;;26.03;12.50;;;-0.50;99.90;;;;;;4189846;28;20281;-39
2021/01/15 09:00:19;;;;;;;25.10;12.60;;;-0.50;99.90;;;;;;4188797;28;20338;-40
2021/01/15 09:02:22;;;;;;;25.03;12.57;;;-0.40;99.90;;;;;;4189391;28;20281;-39
2021/01/15 09:04:28;;;;;;;28.87;13.30;;;-0.40;99.90;;;;;;4188519;28;20370;-40
2021/01/15 09:06:30;;;;;;;30.17;14.30;;;-0.40;99.90;;;;;;4189323;28;20343;-39
2021/01/15 09:08:36;;;;;;;26.93;13.40;;;-0.50;99.90;;;;;;4189084;28;20888;-41
2021/01/15 09:10:37;;;;;;;29.43;14.80;;;-0.40;99.90;;;;;;4189020;28;20673;-41
2021/01/15 09:12:44;;;;;;;32.97;15.77;;;-0.40;99.90;;;;;;4189345;28;20249;-43
2021/01/15 09:14:48;;;;;;;47.97;17.93;;;-0.30;99.90;;;;;;4189763;28;20380;-39
2021/01/15 09:16:55;;;;;;;27.97;15.30;;;-0.30;99.90;;;;;;4189049;28;20745;-43
2021/01/15 09:19:03;;;;;;;30.03;14.77;;;-0.40;99.90;;;;;;4189844;28;20273;-39
2021/01/15 09:21:05;;;;;;;32.80;16.90;;;-0.30;99.90;;;;;;4188217;28;20335;-39
2021/01/15 09:23:06;;;;;;;27.67;13.87;;;-0.20;99.90;;;;;;4189328;28;20366;-38
2021/01/15 09:25:08;;;;;;;28.50;13.57;;;-0.10;99.90;;;;;;4189470;28;20326;-37
2021/01/15 09:27:10;;;;;;;31.37;13.93;;;0.00;99.90;;;;;;4189182;28;20293;-45
2021/01/15 09:29:12;;;;;;;27.43;13.63;;;0.00;99.90;;;;;;4189159;28;20977;-40
2021/01/15 09:31:13;;;;;;;23.07;10.07;;;0.00;99.90;;;;;;4189104;28;20312;-41
2021/01/15 09:33:14;;;;;;;26.97;10.80;;;0.00;99.90;;;;;;4188781;28;20335;-44
2021/01/15 09:35:17;;;;;;;26.87;13.13;;;0.00;99.90;;;;;;4188603;28;20323;-38
2021/01/15 09:37:18;;;;;;;28.53;13.03;;;0.10;99.90;;;;;;4188726;28;20680;-38
2021/01/15 09:39:22;;;;;;;20.97;10.13;;;0.10;99.90;;;;;;4188023;28;20347;-38
2021/01/15 09:41:24;;;;;;;23.37;10.97;;;0.10;99.90;;;;;;4188736;28;20335;-40
2021/01/15 09:43:26;;;;;;;22.67;11.30;;;0.00;99.90;;;;;;4188450;28;20638;-43
2021/01/15 09:45:27;;;;;;;19.67;10.20;;;-0.10;99.90;;;;;;4188943;28;21138;-41
2021/01/15 09:47:30;;;;;;;21.47;11.80;;;-0.20;99.90;;;;;;4188123;28;20342;-40
2021/01/15 09:49:32;;;;;;;23.77;12.87;;;-0.10;99.90;;;;;;4186763;28;20359;-39
2021/01/15 09:51:34;;;;;;;20.93;9.43;;;-0.10;99.90;;;;;;4187840;28;20323;-38
2021/01/15 09:53:35;;;;;;;20.93;10.83;;;-0.20;99.90;;;;;;4188023;28;20281;-40
2021/01/15 09:55:36;;;;;;;16.67;9.93;;;-0.20;99.90;;;;;;4188046;28;20345;-38
2021/01/15 09:57:43;;;;;;;21.30;10.20;;;-0.20;99.90;;;;;;4188179;28;20307;-38
2021/01/15 09:59:44;;;;;;;18.67;8.90;;;-0.30;99.90;;;;;;4187432;28;20307;-38
2021/01/15 10:01:47;;;;;;;19.23;10.27;;;-0.40;99.90;;;;;;4187506;28;20338;-38
2021/01/15 10:03:48;;;;;;;22.70;10.17;;;-0.40;99.90;;;;;;4188145;28;20304;-46
2021/01/15 10:05:49;;;;;;;20.63;8.87;;;-0.40;99.90;;;;;;4188556;28;20281;-36
2021/01/15 10:07:50;;;;;;;19.40;10.03;;;-0.40;99.90;;;;;;4187519;28;20281;-41
2021/01/15 10:09:52;;;;;;;20.00;10.87;;;-0.30;99.90;;;;;;4187675;28;20712;-40
2021/01/15 10:11:53;;;;;;;16.80;9.17;;;-0.30;99.90;;;;;;4188343;28;21104;-41
2021/01/15 10:14:02;;;;;;;22.87;11.47;;;-0.30;99.90;;;;;;4188851;28;20292;-39
2021/01/15 10:16:06;;;;;;;24.33;11.87;;;-0.30;99.90;;;;;;4187944;28;20281;-41
2021/01/15 10:18:08;;;;;;;17.13;9.87;;;-0.30;99.90;;;;;;4188099;28;20265;-39
2021/01/15 10:20:10;;;;;;;17.53;8.63;;;-0.30;99.90;;;;;;4188471;28;20679;-49
2021/01/15 10:22:11;;;;;;;22.30;10.80;;;-0.30;99.90;;;;;;4187718;28;20836;-40
2021/01/15 10:24:14;;;;;;;16.57;9.47;;;-0.30;99.90;;;;;;4187630;28;20277;-41
2021/01/15 10:26:23;;;;;;;21.07;9.47;;;-0.20;99.90;;;;;;4187934;28;20304;-41
2021/01/15 10:28:24;;;;;;;18.70;9.43;;;-0.20;99.90;;;;;;4187536;28;20293;-39
2021/01/15 10:30:25;;;;;;;22.63;9.80;;;-0.20;99.90;;;;;;4187446;28;20330;-40
2021/01/15 10:32:26;;;;;;;17.97;10.20;;;-0.30;99.90;;;;;;4188338;28;20307;-40
2021/01/15 10:34:30;;;;;;;18.00;9.73;;;-0.30;99.90;;;;;;4187724;28;20273;-39
2021/01/15 10:36:31;;;;;;;20.20;9.07;;;-0.40;99.90;;;;;;4188529;28;20265;-39